createdAt,value
2022-08-03T00:01:51.955Z,20.7
2022-08-03T00:03:53.001Z,20.7
2022-08-03T00:06:04.626Z,20.7
2022-08-03T00:09:56.159Z,20.6
2022-08-03T00:11:57.242Z,20.6
2022-08-03T00:14:01.494Z,20.6
2022-08-03T00:16:02.561Z,20.6
2022-08-03T00:18:03.683Z,20.6
2022-08-03T00:24:06.850Z,20.5
2022-08-03T00:26:07.904Z,20.5
2022-08-03T00:28:12.152Z,20.4
2022-08-03T00:30:13.205Z,20.4
2022-08-03T00:32:14.499Z,20.4
2022-08-03T00:34:15.327Z,20.4
2022-08-03T00:38:17.469Z,20.3
2022-08-03T00:44:23.805Z,20.2
2022-08-03T00:46:24.847Z,20.2
2022-08-03T00:49:28.114Z,20.2
2022-08-03T00:51:29.110Z,20.1
2022-08-03T00:53:30.165Z,20.1
2022-08-03T01:01:39.279Z,20
2022-08-03T01:03:40.210Z,20
2022-08-03T01:05:41.297Z,20
2022-08-03T01:12:00.682Z,20
2022-08-03T01:14:01.686Z,19.9
2022-08-03T01:15:49.828Z,19.9
2022-08-03T01:17:50.915Z,19.9
2022-08-03T01:19:51.985Z,19.9
2022-08-03T01:21:53.080Z,19.9
2022-08-03T01:23:57.322Z,19.9
2022-08-03T01:25:58.387Z,19.9
2022-08-03T01:27:59.455Z,19.9
2022-08-03T01:30:00.530Z,19.9
2022-08-03T01:32:58.000Z,19.8
2022-08-03T01:34:02.677Z,19.8
2022-08-03T01:36:03.754Z,19.8
2022-08-03T01:38:08.016Z,19.8
2022-08-03T01:40:09.105Z,19.8
2022-08-03T01:42:10.231Z,19.8
2022-08-03T01:45:13.369Z,19.8
2022-08-03T01:49:15.563Z,19.7
2022-08-03T01:51:19.784Z,19.7
2022-08-03T01:53:20.859Z,19.7
2022-08-03T01:55:21.935Z,19.7
2022-08-03T01:57:23.027Z,19.7
2022-08-03T01:59:24.111Z,19.7
2022-08-03T02:03:26.247Z,19.7
2022-08-03T02:05:30.522Z,19.7
2022-08-03T02:07:31.608Z,19.6
2022-08-03T02:09:32.698Z,19.6
2022-08-03T02:11:33.779Z,19.6
2022-08-03T02:13:34.851Z,19.6
2022-08-03T02:15:35.950Z,19.6
2022-08-03T02:19:41.280Z,19.5
2022-08-03T02:23:43.434Z,19.5
2022-08-03T02:25:44.524Z,19.4
2022-08-03T02:31:47.746Z,19.4
2022-08-03T02:33:52.027Z,19.4
2022-08-03T02:35:53.099Z,19.4
2022-08-03T02:37:54.193Z,19.4
2022-08-03T02:38:56.359Z,19.4
2022-08-03T02:40:57.418Z,19.4
2022-08-03T02:42:58.481Z,19.4
2022-08-03T02:44:59.546Z,19.4
2022-08-03T02:47:03.826Z,19.3
2022-08-03T02:53:07.463Z,19.3
2022-08-03T02:59:10.690Z,19.4
2022-08-03T03:01:15.084Z,19.4
2022-08-03T03:03:16.044Z,19.4
2022-08-03T03:05:54.803Z,19.4
2022-08-03T03:07:18.200Z,19.4
2022-08-03T03:09:19.296Z,19.4
2022-08-03T03:11:20.374Z,19.4
2022-08-03T03:13:21.441Z,19.4
2022-08-03T03:15:25.716Z,19.5
2022-08-03T03:17:26.823Z,19.5
2022-08-03T03:19:27.891Z,19.5
2022-08-03T03:21:28.976Z,19.4
2022-08-03T03:23:30.068Z,19.4
2022-08-03T03:25:31.143Z,19.4
2022-08-03T03:27:32.220Z,19.4
2022-08-03T03:29:36.564Z,19.4
2022-08-03T03:31:37.561Z,19.4
2022-08-03T03:33:38.668Z,19.4
2022-08-03T03:36:00.512Z,19.3
2022-08-03T03:38:01.581Z,19.3
2022-08-03T03:40:02.733Z,19.3
2022-08-03T03:42:06.943Z,19.3
2022-08-03T03:44:08.029Z,19.3
2022-08-03T03:46:09.111Z,19.3
2022-08-03T03:48:10.209Z,19.3
2022-08-03T03:50:11.264Z,19.3
2022-08-03T03:52:12.345Z,19.3
2022-08-03T03:54:13.435Z,19.3
2022-08-03T03:56:17.709Z,19.4
2022-08-03T04:00:19.878Z,19.4
2022-08-03T04:04:22.063Z,19.4
2022-08-03T04:06:23.151Z,19.4
2022-08-03T04:08:24.218Z,19.4
2022-08-03T04:10:28.521Z,19.3
2022-08-03T04:12:29.549Z,19.4
2022-08-03T04:14:30.634Z,19.4
2022-08-03T04:16:31.709Z,19.4
2022-08-03T04:18:32.787Z,19.4
2022-08-03T04:20:33.851Z,19.4
2022-08-03T04:22:34.935Z,19.4
2022-08-03T04:24:39.185Z,19.4
2022-08-03T04:26:40.300Z,19.4
2022-08-03T04:28:41.336Z,19.4
2022-08-03T04:29:44.798Z,19.4
2022-08-03T04:31:44.585Z,19.4
2022-08-03T04:33:45.640Z,19.4
2022-08-03T04:35:58.612Z,19.4
2022-08-03T04:37:50.995Z,19.4
2022-08-03T04:39:52.077Z,19.4
2022-08-03T04:42:07.931Z,19.4
2022-08-03T04:43:54.244Z,19.4
2022-08-03T04:45:55.291Z,19.5
2022-08-03T04:47:56.398Z,19.5
2022-08-03T04:49:57.458Z,19.5
2022-08-03T04:52:01.841Z,19.6
2022-08-03T04:54:02.792Z,19.6
2022-08-03T04:56:03.874Z,19.6
2022-08-03T04:58:04.968Z,19.6
2022-08-03T05:00:06.012Z,19.6
2022-08-03T05:04:08.172Z,19.6
2022-08-03T05:06:12.421Z,19.7
2022-08-03T05:08:13.490Z,19.7
2022-08-03T05:10:16.001Z,19.7
2022-08-03T05:12:15.757Z,19.8
2022-08-03T05:14:16.718Z,19.8
2022-08-03T05:16:17.804Z,19.8
2022-08-03T05:18:18.878Z,19.8
2022-08-03T05:20:23.155Z,19.8
2022-08-03T05:22:24.238Z,19.9
2022-08-03T05:24:25.304Z,19.9
2022-08-03T05:25:27.602Z,19.9
2022-08-03T05:29:29.596Z,20
2022-08-03T05:31:30.646Z,20
2022-08-03T05:33:34.927Z,20
2022-08-03T05:36:00.784Z,20
2022-08-03T05:37:37.066Z,20.1
2022-08-03T05:41:39.199Z,20.2
2022-08-03T05:43:40.287Z,20.2
2022-08-03T05:45:41.354Z,20.2
2022-08-03T05:47:45.618Z,20.2
2022-08-03T05:49:46.694Z,20.3
2022-08-03T05:51:47.743Z,20.3
2022-08-03T05:53:48.872Z,20.3
2022-08-03T05:55:54.254Z,20.3
2022-08-03T05:57:50.941Z,20.3
2022-08-03T05:59:58.378Z,20.4
2022-08-03T06:01:56.376Z,20.4
2022-08-03T06:03:57.337Z,20.5
2022-08-03T06:06:00.298Z,20.5
2022-08-03T06:07:59.478Z,20.5
2022-08-03T06:10:35.816Z,20.5
2022-08-03T06:12:01.620Z,20.6
2022-08-03T06:14:02.671Z,20.6
2022-08-03T06:16:06.950Z,20.7
2022-08-03T06:18:07.996Z,20.7
2022-08-03T06:20:09.052Z,20.7
2022-08-03T06:21:15.506Z,20.7
2022-08-03T06:23:16.095Z,20.7
2022-08-03T06:25:13.312Z,20.8
2022-08-03T06:27:14.344Z,20.9
2022-08-03T06:29:18.609Z,20.9
2022-08-03T06:31:19.669Z,21
2022-08-03T06:33:20.711Z,21
2022-08-03T06:35:21.782Z,21
2022-08-03T06:37:22.840Z,21.1
2022-08-03T06:39:23.991Z,21.2
2022-08-03T06:41:24.938Z,21.2
2022-08-03T06:43:29.202Z,21.4
2022-08-03T06:45:31.904Z,21.3
2022-08-03T06:55:42.431Z,21.9
2022-08-03T06:57:41.255Z,22
2022-08-03T07:01:43.442Z,22
2022-08-03T07:03:52.127Z,22
2022-08-03T07:05:45.434Z,22.1
2022-08-03T07:07:46.462Z,22.1
2022-08-03T07:09:56.520Z,22.3
2022-08-03T07:11:51.749Z,22.7
2022-08-03T07:13:52.760Z,22.9
2022-08-03T07:18:29.289Z,22.9
2022-08-03T07:22:23.706Z,22.9
2022-08-03T07:24:27.937Z,23.8
2022-08-03T07:26:28.953Z,23.9
2022-08-03T07:28:29.969Z,23.8
2022-08-03T07:36:34.230Z,24.1
2022-08-03T07:46:42.229Z,24.4
2022-08-03T07:48:43.234Z,24.3
2022-08-03T07:50:44.201Z,24.9
2022-08-03T07:52:48.419Z,25.8
2022-08-03T07:54:49.351Z,25.9
2022-08-03T07:56:50.301Z,25.9
2022-08-03T07:58:51.221Z,25.6
2022-08-03T08:00:52.167Z,26.1
2022-08-03T08:02:53.018Z,26.3
2022-08-03T08:04:53.909Z,26.5
2022-08-03T08:06:58.004Z,26.7
2022-08-03T08:08:58.855Z,26.6
2022-08-03T08:10:59.701Z,25.9
2022-08-03T08:12:01.782Z,25.5
2022-08-03T08:14:02.533Z,25.5
2022-08-03T08:16:03.345Z,25.9
2022-08-03T08:18:04.167Z,25.8
2022-08-03T08:34:16.759Z,25.9
2022-08-03T08:44:20.317Z,26.6
2022-08-03T08:46:23.339Z,26.8
2022-08-03T08:48:24.938Z,27
2022-08-03T08:50:27.668Z,26.9
2022-08-03T08:58:28.313Z,27
2022-08-03T09:00:28.994Z,27.3
2022-08-03T09:04:33.611Z,27.6
2022-08-03T09:06:34.244Z,27.9
2022-08-03T09:07:36.195Z,27.8
2022-08-03T09:10:08.429Z,27.7
2022-08-03T09:11:53.340Z,27.8
2022-08-03T09:13:38.162Z,28.1
2022-08-03T09:15:42.061Z,28.4
2022-08-03T09:19:43.366Z,28.9
2022-08-03T09:21:43.981Z,28.4
2022-08-03T09:23:59.732Z,28.5
2022-08-03T09:25:45.072Z,28.5
2022-08-03T09:27:45.606Z,28.3
2022-08-03T09:31:49.842Z,28.3
2022-08-03T09:33:50.391Z,28.3
2022-08-03T09:35:54.028Z,28.6
2022-08-03T09:49:58.369Z,28.9
2022-08-03T09:52:31.510Z,29.3
2022-08-03T09:54:00.354Z,29.5
2022-08-03T09:56:34.914Z,29.8
2022-08-03T09:58:03.743Z,29.5
2022-08-03T10:00:08.184Z,29.8
2022-08-03T10:02:04.842Z,30.1
2022-08-03T10:03:06.676Z,29.7
2022-08-03T10:07:07.790Z,29.5
2022-08-03T10:16:22.183Z,29.9
2022-08-03T10:17:13.730Z,29.8
2022-08-03T10:21:14.766Z,30.4
2022-08-03T10:23:15.335Z,30.4
2022-08-03T10:25:19.046Z,30.2
2022-08-03T10:27:19.898Z,30
2022-08-03T10:29:20.136Z,29.9
2022-08-03T10:31:20.721Z,30.2
2022-08-03T10:39:26.306Z,30.5
2022-08-03T10:41:26.882Z,30.4
2022-08-03T10:43:27.425Z,30.3
2022-08-03T10:45:27.986Z,30.2
2022-08-03T10:47:28.573Z,30.3
2022-08-03T10:49:34.434Z,30.6
2022-08-03T10:51:29.688Z,31.1
2022-08-03T10:53:33.419Z,30.8
2022-08-03T10:57:34.565Z,30.8
2022-08-03T11:02:02.288Z,31.3
2022-08-03T11:04:06.113Z,31.3
2022-08-03T11:06:06.556Z,31.1
2022-08-03T11:08:07.105Z,31
2022-08-03T11:10:10.491Z,31
2022-08-03T11:12:08.182Z,30.8
2022-08-03T11:14:08.734Z,31.3
2022-08-03T11:16:12.470Z,31.2
2022-08-03T11:18:11.282Z,31.1
2022-08-03T11:20:13.546Z,31.2
2022-08-03T11:22:14.086Z,31.1
2022-08-03T11:24:14.611Z,31.1
2022-08-03T11:26:15.151Z,31.4
2022-08-03T11:28:15.710Z,30.9
2022-08-03T11:30:16.237Z,31.5
2022-08-03T11:34:20.490Z,31.3
2022-08-03T11:36:32.012Z,31.6
2022-08-03T11:44:23.182Z,31.5
2022-08-03T11:46:28.433Z,31.8
2022-08-03T11:48:27.354Z,31.6
2022-08-03T11:50:27.880Z,31.6
2022-08-03T11:52:28.963Z,31.7
2022-08-03T11:53:30.250Z,31.4
2022-08-03T11:55:30.862Z,31.3
2022-08-03T12:03:36.164Z,32
2022-08-03T12:05:36.559Z,32.2
2022-08-03T12:08:03.845Z,31.5
2022-08-03T12:21:43.858Z,31.3
2022-08-03T12:23:44.401Z,31.4
2022-08-03T12:25:44.938Z,31.4
2022-08-03T12:27:45.470Z,31.4
2022-08-03T12:31:49.838Z,31.4
2022-08-03T12:33:50.546Z,31.2
2022-08-03T12:35:53.423Z,31.3
2022-08-03T12:37:51.853Z,31.4
2022-08-03T12:40:02.791Z,31.4
2022-08-03T12:41:54.700Z,31.7
2022-08-03T12:43:58.637Z,31.8
2022-08-03T12:49:02.033Z,31.8
2022-08-03T12:51:02.638Z,31.8
2022-08-03T12:53:03.346Z,31.6
2022-08-03T12:55:04.027Z,31.7
2022-08-03T12:57:07.971Z,31.9
2022-08-03T12:59:08.690Z,31.8
2022-08-03T13:01:10.636Z,31.8
2022-08-03T13:03:38.892Z,31.6
2022-08-03T13:05:10.792Z,31.6
2022-08-03T13:09:12.206Z,31.8
2022-08-03T13:11:16.161Z,31.5
2022-08-03T13:13:16.858Z,31.6
2022-08-03T13:19:19.012Z,32
2022-08-03T13:21:19.715Z,32
2022-08-03T13:23:22.304Z,32
2022-08-03T13:25:24.390Z,32
2022-08-03T13:28:04.148Z,32
2022-08-03T13:29:25.788Z,32
2022-08-03T13:31:26.488Z,31.9
2022-08-03T13:33:27.198Z,31.9
2022-08-03T13:35:27.901Z,32
2022-08-03T13:39:32.914Z,31.6
2022-08-03T13:41:33.264Z,31.5
2022-08-03T13:43:33.954Z,31.6
2022-08-03T13:44:35.912Z,31.6
2022-08-03T13:46:36.630Z,31.7
2022-08-03T13:48:37.926Z,31.7
2022-08-03T13:50:42.773Z,31.8
2022-08-03T13:52:42.020Z,31.9
2022-08-03T13:54:46.175Z,32
2022-08-03T13:56:43.428Z,31.9
2022-08-03T13:58:44.134Z,31.9
2022-08-03T14:00:44.813Z,31.8
2022-08-03T14:02:45.561Z,31.5
2022-08-03T14:04:46.235Z,31.5
2022-08-03T14:06:50.159Z,31.7
2022-08-03T14:08:50.877Z,31.9
2022-08-03T14:10:51.586Z,31.8
2022-08-03T14:12:52.288Z,31.8
2022-08-03T14:14:52.991Z,32
2022-08-03T14:16:53.687Z,31.7
2022-08-03T14:18:54.389Z,31.7
2022-08-03T14:31:01.834Z,31.1
2022-08-03T14:33:02.577Z,31.3
2022-08-03T14:41:35.421Z,31.2
2022-08-03T14:43:36.114Z,31.2
2022-08-03T14:50:37.960Z,31.3
2022-08-03T14:51:51.426Z,31.4
2022-08-03T14:53:43.003Z,31.1
2022-08-03T14:57:44.447Z,31.4
2022-08-03T15:07:51.990Z,31.6
2022-08-03T15:09:52.712Z,31.4
2022-08-03T15:11:53.461Z,31.4
2022-08-03T15:13:54.173Z,31.3
2022-08-03T15:15:58.152Z,31.2
2022-08-03T15:18:00.268Z,31.3
2022-08-03T15:20:18.983Z,31.2
2022-08-03T15:22:01.005Z,31.2
2022-08-03T15:24:01.055Z,31.4
2022-08-03T15:26:30.588Z,31.4
2022-08-03T15:28:03.960Z,31.4
2022-08-03T15:30:10.364Z,31.1
2022-08-03T15:32:09.428Z,31.1
2022-08-03T15:34:07.982Z,31.4
2022-08-03T15:41:13.612Z,31.4
2022-08-03T15:43:16.098Z,31.4
2022-08-03T15:57:24.451Z,30.9
2022-08-03T15:59:25.209Z,31
2022-08-03T16:05:27.423Z,30.8
2022-08-03T16:09:42.211Z,30.7
2022-08-03T16:11:32.885Z,30.9
2022-08-03T16:14:12.353Z,31
2022-08-03T16:15:34.387Z,31
2022-08-03T16:17:35.119Z,30.8
2022-08-03T16:23:37.381Z,30.6
2022-08-03T16:25:41.502Z,30.7
2022-08-03T16:28:07.072Z,30.8
2022-08-03T16:29:42.895Z,30.7
2022-08-03T16:30:44.846Z,30.7
2022-08-03T16:32:45.639Z,30.7
2022-08-03T16:36:47.154Z,30.7
2022-08-03T16:38:51.218Z,30.6
2022-08-03T16:40:52.280Z,30.6
2022-08-03T16:42:52.623Z,30.8
2022-08-03T16:44:53.614Z,30.6
2022-08-03T16:46:54.129Z,30.5
2022-08-03T16:48:54.899Z,30.3
2022-08-03T16:50:55.652Z,30.2
2022-08-03T16:52:59.636Z,30.2
2022-08-03T16:57:01.176Z,30.2
2022-08-03T16:59:02.254Z,30.1
2022-08-03T17:01:10.809Z,30
2022-08-03T17:03:04.218Z,30
2022-08-03T17:07:08.804Z,30
2022-08-03T17:09:09.801Z,30
2022-08-03T17:11:09.836Z,29.9
2022-08-03T17:13:10.630Z,29.9
2022-08-03T17:15:11.435Z,30
2022-08-03T17:17:16.430Z,30.1
2022-08-03T17:19:13.056Z,30
2022-08-03T17:21:16.985Z,29.6
2022-08-03T17:23:34.288Z,29.6
2022-08-03T17:25:21.960Z,29.6
2022-08-03T17:26:22.225Z,29.6
2022-08-03T17:28:48.531Z,29.5
2022-08-03T17:30:22.146Z,29.5
2022-08-03T17:32:23.290Z,29.5
2022-08-03T17:34:26.982Z,29.5
2022-08-03T17:36:47.512Z,29.4
2022-08-03T17:38:28.888Z,29.5
2022-08-03T17:44:37.656Z,29.3
2022-08-03T17:46:31.780Z,29.2
2022-08-03T17:48:35.805Z,29.3
2022-08-03T17:52:37.410Z,29.2
2022-08-03T17:55:56.146Z,29.2
2022-08-03T17:56:45.952Z,29.2
2022-08-03T17:58:41.476Z,29.1
2022-08-03T18:00:43.305Z,29.1
2022-08-03T18:02:47.727Z,29.1
2022-08-03T18:04:45.593Z,29.1
2022-08-03T18:06:56.578Z,29.1
2022-08-03T18:08:47.218Z,29.1
2022-08-03T18:10:49.773Z,29
2022-08-03T18:12:52.096Z,28.9
2022-08-03T18:14:57.935Z,28.9
2022-08-03T18:16:53.794Z,29
2022-08-03T18:18:54.587Z,29
2022-08-03T18:20:55.461Z,28.9
2022-08-03T18:23:36.416Z,28.9
2022-08-03T18:25:45.262Z,29
2022-08-03T18:27:23.973Z,28.8
2022-08-03T18:29:29.893Z,28.7
2022-08-03T18:31:59.736Z,28.6
2022-08-03T18:34:16.306Z,28.5
2022-08-03T18:35:52.924Z,28.5
2022-08-03T18:39:32.502Z,28.4
2022-08-03T18:41:34.643Z,28.4
2022-08-03T18:43:46.610Z,28.3
2022-08-03T18:45:57.296Z,28.3
2022-08-03T18:47:50.816Z,28.3
2022-08-03T18:49:39.554Z,28.2
2022-08-03T18:51:43.277Z,28.2
2022-08-03T18:54:02.676Z,28.1
2022-08-03T18:55:52.252Z,28.1
2022-08-03T18:57:46.558Z,28
2022-08-03T18:59:47.042Z,28
2022-08-03T19:01:59.641Z,28
2022-08-03T19:03:48.736Z,28
2022-08-03T19:06:02.272Z,27.9
2022-08-03T19:07:58.447Z,27.9
2022-08-03T19:09:51.400Z,27.9
2022-08-03T19:12:25.970Z,27.8
2022-08-03T19:13:56.310Z,27.7
2022-08-03T19:15:57.177Z,27.6
2022-08-03T19:16:59.209Z,27.5
2022-08-03T19:19:00.099Z,27.5
2022-08-03T19:21:00.958Z,27.4
2022-08-03T19:23:01.852Z,27.3
2022-08-03T19:25:06.103Z,27.2
2022-08-03T19:27:06.841Z,27.2
2022-08-03T19:29:15.111Z,27.1
2022-08-03T19:31:10.294Z,27.1
2022-08-03T19:33:09.467Z,27.1
2022-08-03T19:35:13.547Z,27.1
2022-08-03T19:37:11.257Z,27.1
2022-08-03T19:39:15.392Z,27
2022-08-03T19:41:16.269Z,27
2022-08-03T19:43:17.162Z,26.9
2022-08-03T19:45:18.049Z,26.9
2022-08-03T19:47:18.955Z,26.8
2022-08-03T19:49:19.858Z,26.7
2022-08-03T19:51:56.644Z,26.7
2022-08-03T19:53:24.863Z,26.6
2022-08-03T19:55:25.765Z,26.6
2022-08-03T19:57:26.854Z,26.6
2022-08-03T19:59:27.589Z,26.5
2022-08-03T20:01:28.497Z,26.4
2022-08-03T20:03:43.064Z,26.4
2022-08-03T20:05:30.312Z,26.3
2022-08-03T20:07:34.544Z,26.3
2022-08-03T20:09:35.311Z,26.3
2022-08-03T20:11:43.786Z,26.2
2022-08-03T20:12:39.459Z,26.2
2022-08-03T20:14:39.187Z,26.1
2022-08-03T20:16:40.165Z,26.1
2022-08-03T20:18:41.208Z,26
2022-08-03T20:20:45.139Z,26
2022-08-03T20:22:46.274Z,25.9
2022-08-03T20:24:52.323Z,25.9
2022-08-03T20:26:47.856Z,25.8
2022-08-03T20:28:50.041Z,25.8
2022-08-03T20:30:49.667Z,25.7
2022-08-03T20:32:50.638Z,25.6
2022-08-03T20:34:54.743Z,25.5
2022-08-03T20:36:55.670Z,25.5
2022-08-03T20:38:58.175Z,25.4
2022-08-03T20:40:59.204Z,25.4
2022-08-03T20:42:58.448Z,25.3
2022-08-03T20:45:05.266Z,25.3
2022-08-03T20:49:04.471Z,25.1
2022-08-03T20:55:12.787Z,25
2022-08-03T20:57:09.510Z,25
2022-08-03T20:59:09.210Z,24.9
2022-08-03T21:01:10.054Z,24.9
2022-08-03T21:03:14.246Z,24.8
2022-08-03T21:05:15.172Z,24.8
2022-08-03T21:10:19.150Z,24.7
2022-08-03T21:12:20.349Z,24.7
2022-08-03T21:14:21.095Z,24.7
2022-08-03T21:16:25.261Z,24.6
2022-08-03T21:18:26.198Z,24.6
2022-08-03T21:20:27.153Z,24.6
2022-08-03T21:22:28.165Z,24.6
2022-08-03T21:24:29.094Z,24.6
2022-08-03T21:30:35.185Z,24.4
2022-08-03T21:34:37.122Z,24.3
2022-08-03T21:44:45.173Z,24.2
2022-08-03T21:48:47.101Z,24.1
2022-08-03T21:56:51.035Z,23.9
2022-08-03T21:58:55.189Z,23.9
2022-08-03T22:00:56.182Z,23.9
2022-08-03T22:02:58.131Z,23.9
2022-08-03T22:05:28.138Z,23.8
2022-08-03T22:07:24.115Z,23.8
2022-08-03T22:09:25.056Z,23.8
2022-08-03T22:11:29.234Z,23.7
2022-08-03T22:13:43.120Z,23.8
2022-08-03T22:15:31.234Z,23.7
2022-08-03T22:17:55.146Z,23.6
2022-08-03T22:19:33.208Z,23.6
2022-08-03T22:21:36.057Z,23.6
2022-08-03T22:23:35.176Z,23.6
2022-08-03T22:25:39.366Z,23.6
2022-08-03T22:27:40.369Z,23.6
2022-08-03T22:29:41.373Z,23.5
2022-08-03T22:31:59.106Z,23.5
2022-08-03T22:33:43.355Z,23.5
2022-08-03T22:35:47.941Z,23.5
2022-08-03T22:37:45.336Z,23.5
2022-08-03T22:41:50.571Z,23.5
2022-08-03T22:43:51.529Z,23.4
2022-08-03T22:46:10.599Z,23.3
2022-08-03T22:47:53.515Z,23.3
2022-08-03T22:51:55.536Z,23.2
2022-08-03T22:53:59.730Z,23.2
2022-08-03T22:56:00.729Z,23.2
2022-08-03T22:58:01.718Z,23.1
2022-08-03T23:03:05.904Z,23
2022-08-03T23:09:12.093Z,23
2022-08-03T23:11:13.077Z,23
2022-08-03T23:19:25.513Z,22.9
2022-08-03T23:22:00.154Z,22.9
2022-08-03T23:23:22.326Z,22.8
2022-08-03T23:25:23.356Z,22.9
2022-08-03T23:27:24.355Z,22.8
2022-08-03T23:29:25.382Z,22.8
2022-08-03T23:31:26.402Z,22.8
2022-08-03T23:33:27.416Z,22.8
2022-08-03T23:36:28.659Z,22.7
2022-08-03T23:37:32.650Z,22.7
2022-08-03T23:39:34.999Z,22.6
2022-08-03T23:41:34.671Z,22.6
2022-08-03T23:47:46.445Z,22.7
2022-08-03T23:49:41.951Z,22.7
2022-08-03T23:53:43.996Z,22.6
2022-08-03T23:56:47.326Z,22.7
2022-08-03T23:58:48.156Z,22.6
